Airport ID:KTME
Update Time (UTC):16/11/2018 03:36
Wind Speed (Knots):5
Wind Direction (Magnetic):180
Temperature (°C):6.9
Dew Point (°C):3.7
Humidity (%):81.1
Altimeter (inHg):30.26
Density Altitude (Feet):
Visibility (Miles):10
Clouds (Hundreds of feet):CLR
Present Weather:
METAR:METAR KTME 160335Z AUTO 19005KT 10SM CLR 07/04 A3026 RMK AO2

The data displayed is for advisory purposes only and is not to be used for flight planning or operations.

This page is not automatically refreshed. Reload the page to see current data.